createdAt,value
2019-03-24T00:01:41.078Z,11.33
2019-03-24T00:04:06.784Z,11.54
2019-03-24T00:06:35.452Z,11.44
2019-03-24T00:09:06.323Z,11.31
2019-03-24T00:11:34.978Z,11.32
2019-03-24T00:14:03.655Z,11.22
2019-03-24T00:16:32.320Z,11.13
2019-03-24T00:19:01.002Z,11.23
2019-03-24T00:21:29.660Z,11.09
2019-03-24T00:23:58.329Z,11.13
2019-03-24T00:26:26.985Z,11.12
2019-03-24T00:28:55.716Z,11.06
2019-03-24T00:31:24.369Z,11.18
2019-03-24T00:33:53.061Z,11.11
2019-03-24T00:36:21.793Z,10.95
2019-03-24T00:38:50.519Z,10.92
2019-03-24T00:41:19.180Z,10.97
2019-03-24T00:43:47.859Z,10.90
2019-03-24T00:46:16.696Z,10.90
2019-03-24T00:48:45.369Z,10.77
2019-03-24T00:51:14.030Z,10.82
2019-03-24T00:53:42.690Z,10.92
2019-03-24T00:56:11.382Z,11.00
2019-03-24T00:58:40.036Z,10.88
2019-03-24T01:01:08.712Z,10.86
2019-03-24T01:03:37.366Z,10.83
2019-03-24T01:06:06.060Z,10.83
2019-03-24T01:08:34.799Z,10.74
2019-03-24T01:11:03.546Z,10.81
2019-03-24T01:13:32.201Z,10.82
2019-03-24T01:16:00.883Z,10.67
2019-03-24T01:18:29.529Z,10.54
2019-03-24T01:20:58.201Z,10.58
2019-03-24T01:23:26.867Z,10.55
2019-03-24T01:25:55.575Z,10.59
2019-03-24T01:28:24.244Z,10.56
2019-03-24T01:30:52.931Z,10.45
2019-03-24T01:33:21.606Z,10.41
2019-03-24T01:35:50.299Z,10.33
2019-03-24T01:38:19.869Z,10.29
2019-03-24T01:40:48.551Z,10.33
2019-03-24T01:43:17.205Z,10.36
2019-03-24T01:45:45.875Z,10.27
2019-03-24T01:48:14.559Z,10.27
2019-03-24T01:50:43.240Z,10.25
2019-03-24T01:53:11.901Z,10.26
2019-03-24T01:55:40.571Z,10.29
2019-03-24T01:58:09.228Z,10.18
2019-03-24T02:00:37.969Z,10.18
2019-03-24T02:03:06.622Z,10.03
2019-03-24T02:05:35.291Z,10.04
2019-03-24T02:08:03.964Z,10.12
2019-03-24T02:10:32.624Z,10.06
2019-03-24T02:13:01.322Z,10.07
2019-03-24T02:15:30.000Z,10.10
2019-03-24T02:17:58.644Z,9.94
2019-03-24T02:20:27.297Z,9.98
2019-03-24T02:22:56.117Z,10.03
2019-03-24T02:25:24.777Z,10.02
2019-03-24T02:27:53.472Z,10.07
2019-03-24T02:30:22.126Z,10.04
2019-03-24T02:32:50.812Z,9.89
2019-03-24T02:35:19.469Z,9.84
2019-03-24T02:37:48.182Z,9.95
2019-03-24T02:40:16.841Z,9.96
2019-03-24T02:42:45.503Z,9.92
2019-03-24T02:45:14.223Z,9.93
2019-03-24T02:47:42.894Z,9.83
2019-03-24T02:50:11.724Z,9.92
2019-03-24T02:52:40.404Z,9.85
2019-03-24T02:55:10.292Z,9.70
2019-03-24T02:57:38.971Z,9.75
2019-03-24T03:00:08.982Z,9.89
2019-03-24T03:02:37.643Z,9.66
2019-03-24T03:05:07.944Z,9.57
2019-03-24T03:07:36.600Z,9.48
2019-03-24T03:10:09.592Z,9.50
2019-03-24T03:12:38.265Z,9.47
2019-03-24T03:15:08.193Z,9.41
2019-03-24T03:17:36.856Z,9.25
2019-03-24T03:20:07.076Z,9.24
2019-03-24T03:22:35.773Z,9.24
2019-03-24T03:25:09.027Z,9.23
2019-03-24T03:27:37.702Z,9.29
2019-03-24T03:30:09.744Z,9.30
2019-03-24T03:32:38.616Z,9.22
2019-03-24T03:35:08.146Z,9.29
2019-03-24T03:37:36.833Z,9.38
2019-03-24T03:40:08.735Z,9.17
2019-03-24T03:42:39.134Z,9.05
2019-03-24T03:45:10.624Z,9.06
2019-03-24T03:47:39.826Z,9.12
2019-03-24T03:50:08.920Z,8.94
2019-03-24T03:52:37.576Z,8.96
2019-03-24T03:55:06.791Z,8.95
2019-03-24T03:57:35.451Z,8.96
2019-03-24T04:00:08.323Z,8.90
2019-03-24T04:02:36.994Z,8.99
2019-03-24T04:05:06.811Z,8.93
2019-03-24T04:07:35.478Z,8.88
2019-03-24T04:10:04.771Z,8.98
2019-03-24T04:12:33.435Z,8.98
2019-03-24T04:15:02.073Z,8.88
2019-03-24T04:17:30.822Z,8.87
2019-03-24T04:20:00.568Z,8.79
2019-03-24T04:22:29.547Z,8.89
2019-03-24T04:24:58.193Z,8.75
2019-03-24T04:27:26.866Z,8.78
2019-03-24T04:29:55.540Z,8.78
2019-03-24T04:32:24.200Z,8.86
2019-03-24T04:34:52.849Z,8.83
2019-03-24T04:37:21.518Z,8.73
2019-03-24T04:39:50.153Z,8.61
2019-03-24T04:42:18.830Z,8.47
2019-03-24T04:44:47.482Z,8.47
2019-03-24T04:47:16.934Z,8.62
2019-03-24T04:49:45.673Z,8.70
2019-03-24T04:52:14.341Z,8.73
2019-03-24T04:54:42.993Z,8.60
2019-03-24T04:57:11.654Z,8.65
2019-03-24T04:59:40.306Z,8.67
2019-03-24T05:02:08.983Z,8.69
2019-03-24T05:04:37.625Z,8.71
2019-03-24T05:07:06.297Z,8.69
2019-03-24T05:09:34.946Z,8.66
2019-03-24T05:12:03.599Z,8.69
2019-03-24T05:14:32.252Z,8.80
2019-03-24T05:17:00.898Z,8.66
2019-03-24T05:19:29.580Z,8.74
2019-03-24T05:21:58.293Z,8.79
2019-03-24T05:24:26.947Z,8.77
2019-03-24T05:26:55.663Z,8.75
2019-03-24T05:29:24.329Z,8.63
2019-03-24T05:31:52.975Z,8.55
2019-03-24T05:34:21.642Z,8.55
2019-03-24T05:36:50.337Z,8.66
2019-03-24T05:39:18.961Z,8.60
2019-03-24T05:41:47.611Z,8.66
2019-03-24T05:44:16.326Z,8.74
2019-03-24T05:46:44.971Z,8.86
2019-03-24T05:49:13.638Z,8.91
2019-03-24T05:51:42.294Z,8.79
2019-03-24T05:54:10.951Z,8.91
2019-03-24T05:56:39.595Z,8.91
2019-03-24T05:59:08.264Z,9.00
2019-03-24T06:01:36.915Z,8.88
2019-03-24T06:04:05.572Z,8.99
2019-03-24T06:06:34.222Z,8.96
2019-03-24T06:09:04.456Z,9.08
2019-03-24T06:11:33.171Z,9.14
2019-03-24T06:14:01.829Z,9.19
2019-03-24T06:16:30.510Z,9.17
2019-03-24T06:18:59.186Z,9.25
2019-03-24T06:21:27.883Z,9.41
2019-03-24T06:23:56.601Z,9.51
2019-03-24T06:26:25.251Z,9.59
2019-03-24T06:28:54.174Z,9.70
2019-03-24T06:31:22.816Z,9.73
2019-03-24T06:33:51.473Z,9.75
2019-03-24T06:36:20.139Z,9.90
2019-03-24T06:38:48.801Z,9.98
2019-03-24T06:41:17.489Z,10.07
2019-03-24T06:43:46.125Z,10.14
2019-03-24T06:46:15.104Z,10.27
2019-03-24T06:48:43.829Z,10.23
2019-03-24T06:51:12.489Z,10.43
2019-03-24T06:53:41.172Z,10.53
2019-03-24T06:56:09.827Z,10.81
2019-03-24T06:58:38.481Z,10.89
2019-03-24T07:01:07.155Z,10.96
2019-03-24T07:03:35.812Z,11.04
2019-03-24T07:06:04.490Z,11.15
2019-03-24T07:08:33.784Z,11.28
2019-03-24T07:11:02.471Z,11.29
2019-03-24T07:13:31.123Z,11.43
2019-03-24T07:16:01.113Z,11.58
2019-03-24T07:18:30.782Z,11.75
2019-03-24T07:20:59.599Z,11.86
2019-03-24T07:23:28.271Z,12.08
2019-03-24T07:25:56.946Z,12.33
2019-03-24T07:28:25.608Z,12.51
2019-03-24T07:30:54.289Z,12.80
2019-03-24T07:33:22.957Z,13.27
2019-03-24T07:35:51.630Z,13.63
2019-03-24T07:38:20.293Z,13.97
2019-03-24T07:40:48.967Z,14.41
2019-03-24T07:43:17.650Z,14.91
2019-03-24T07:45:46.315Z,15.22
2019-03-24T07:48:19.382Z,15.55
2019-03-24T07:50:45.759Z,15.71
2019-03-24T07:53:14.419Z,15.99
2019-03-24T07:55:43.111Z,15.96
2019-03-24T07:58:11.775Z,16.10
2019-03-24T08:00:40.554Z,16.27
2019-03-24T08:03:09.261Z,16.57
2019-03-24T08:05:38.023Z,16.93
2019-03-24T08:08:06.686Z,17.06
2019-03-24T08:10:35.366Z,17.40
2019-03-24T08:13:04.119Z,17.82
2019-03-24T08:15:32.806Z,17.78
2019-03-24T08:18:01.488Z,18.09
2019-03-24T08:20:30.150Z,18.26
2019-03-24T08:22:58.820Z,18.66
2019-03-24T08:25:27.495Z,18.83
2019-03-24T08:27:56.150Z,18.71
2019-03-24T08:30:33.167Z,19.18
2019-03-24T08:33:01.998Z,19.36
2019-03-24T08:35:30.763Z,19.61
2019-03-24T08:37:59.503Z,19.84
2019-03-24T08:40:28.179Z,20.22
2019-03-24T08:42:56.836Z,20.31
2019-03-24T08:45:27.549Z,20.70
2019-03-24T08:47:57.767Z,20.89
2019-03-24T08:50:26.712Z,20.93
2019-03-24T08:52:56.363Z,21.21
2019-03-24T08:55:25.057Z,21.04
2019-03-24T08:57:53.711Z,20.22
2019-03-24T09:00:30.572Z,20.50
2019-03-24T09:02:52.913Z,20.32
2019-03-24T09:05:21.632Z,20.99
2019-03-24T09:07:50.309Z,21.05
2019-03-24T09:10:19.032Z,21.43
2019-03-24T09:12:47.715Z,21.53
2019-03-24T09:15:16.426Z,21.81
2019-03-24T09:17:44.872Z,22.11
2019-03-24T09:20:13.498Z,22.18
2019-03-24T09:22:41.828Z,22.31
2019-03-24T09:25:10.227Z,22.35
2019-03-24T09:27:38.689Z,21.69
2019-03-24T12:05:51.924Z,23.75
2019-03-24T12:08:20.606Z,23.64
2019-03-24T12:10:49.260Z,22.72
2019-03-24T12:13:17.947Z,22.70
2019-03-24T12:15:46.315Z,22.07
2019-03-24T12:18:14.663Z,22.22
2019-03-24T17:55:01.075Z,22.10
2019-03-24T18:18:43.538Z,23.70
2019-03-24T18:21:12.963Z,23.70
2019-03-24T18:23:42.418Z,23.89
2019-03-24T18:26:11.913Z,23.67
2019-03-24T18:28:43.430Z,23.84
2019-03-24T18:31:12.649Z,23.60
2019-03-24T18:36:51.920Z,23.62
2019-03-24T18:41:56.386Z,23.52
2019-03-24T18:47:02.465Z,18.44
2019-03-24T18:52:07.017Z,15.99
